Blairs Mill, Kentucky
Current Conditions -  °F | °C
As of 11:53 PM on Thursday 27 Nov 2014 (Local Time) from KJKL Reporting Station
Overcast Overcast  
Wind Chill: 19°   Ceiling: 3200
Heat Index: 28°   Visibility: 10mi
Dew Point: 20°   Wind: 9mph
Humidity: 72%   Direction: 270°W
Pressure: 30.35"   Gusts: NA
Location:  37.937°N, 83.2694°W
Report Text: KJKL 280453Z AUTO 27008KT 10SM SCT022 BKN032 OVC041 M02/M07 A3035 RMK AO2 SNB03E13 SLP290 P0000 T10221067 400281022
Loading
Personal Weather Stations






























Interactive Weather Map New forecast layout! Learn more

10-Day Weather Forecast

Advertisements
Track Severe Weather on mobile